KFDR/FDR METAR and TAF weather

Enter ICAO airport designator
Station Type Date Time Source
KFDR METAR 2021/08/05 05:53 UTC NOAA

KFDR 050553Z AUTO 10006KT 10SM CLR 24/19 A3005 RMK AO2 SLP157 T02390189 10317 20239 403280200 50004


Station Type Date Time Source
KFDR Decoded METAR 2021/08/05 05:53 UTC NOAA

FREDERICK MUNICIPAL AIRPORT, OK, United States (KFDR) 34-21N 98-59W 377M
Aug 05, 2021 - 01:53 AM EDT / 2021.08.05 0553 UTC
Wind: from the E (100 degrees) at 7 MPH (6 KT):0
Visibility: 10 mile(s):0
Sky conditions: clear
Temperature: 75.0 F (23.9 C)
Dew Point: 66.0 F (18.9 C)
Relative Humidity: 73%
Pressure (altimeter): 30.05 in. Hg (1017 hPa)
Pressure tendency: 0.01 inches (0.4 hPa) higher than three hours ago
ob: KFDR 050553Z AUTO 10006KT 10SM CLR 24/19 A3005 RMK AO2 SLP157 T02390189 10317 20239 403280200 50004
cycle: 6

Station Type Date Time Source
KFDR TAF UTC NOAA

Error!

Example: see airport list